createdAt,value
2018-11-14T03:14:42.780Z,5.37
2018-11-14T03:15:42.750Z,5.35
2018-11-14T03:16:42.738Z,5.43
2018-11-14T03:17:42.730Z,5.25
2018-11-14T03:18:42.725Z,4.98
2018-11-14T03:21:03.749Z,4.62
2018-11-14T03:22:03.707Z,4.54
2018-11-14T03:23:03.693Z,4.47
2018-11-14T03:24:03.685Z,4.51
2018-11-14T03:25:03.674Z,4.50
2018-11-14T03:26:12.287Z,4.50
2018-11-14T03:27:57.050Z,4.42
2018-11-14T03:28:57.032Z,4.37
2018-11-14T03:29:57.021Z,4.34
2018-11-14T03:30:57.015Z,4.29
2018-11-14T03:31:56.990Z,4.34
2018-11-14T03:32:56.983Z,4.39
2018-11-14T03:33:56.974Z,4.34
2018-11-14T03:34:56.967Z,4.36
2018-11-14T03:35:56.953Z,4.36
2018-11-14T03:36:56.949Z,4.39
2018-11-14T03:37:56.937Z,4.42
2018-11-14T03:38:56.951Z,4.44
2018-11-14T03:39:56.923Z,4.50
2018-11-14T03:40:56.910Z,4.50
2018-11-14T03:41:56.904Z,4.47
2018-11-14T03:42:56.895Z,4.57
2018-11-14T03:43:56.884Z,4.51
2018-11-14T03:44:56.902Z,4.55
2018-11-14T03:45:56.874Z,4.54
2018-11-14T03:46:56.857Z,4.57
2018-11-14T03:47:56.852Z,4.62
2018-11-14T03:48:56.841Z,4.54
2018-11-14T03:49:56.832Z,4.55
2018-11-14T03:50:56.825Z,4.64
2018-11-14T03:51:56.818Z,4.62
2018-11-14T03:52:56.807Z,4.75
2018-11-14T03:53:56.797Z,4.80
2018-11-14T03:54:56.794Z,4.77
2018-11-14T03:55:56.778Z,4.77
2018-11-14T03:56:56.768Z,4.73
2018-11-14T03:57:56.772Z,4.86
2018-11-14T03:58:56.764Z,4.76
2018-11-14T03:59:56.749Z,4.70
2018-11-14T04:00:56.752Z,4.70
2018-11-14T04:01:56.726Z,4.70
2018-11-14T04:02:56.738Z,4.67
2018-11-14T04:03:56.713Z,4.69
2018-11-14T04:04:56.702Z,4.70
2018-11-14T04:05:56.693Z,4.57
2018-11-14T04:06:56.706Z,4.64
2018-11-14T04:07:56.680Z,4.67
2018-11-14T04:08:56.667Z,4.76
2018-11-14T04:09:56.672Z,4.67
2018-11-14T04:10:56.651Z,4.70
2018-11-14T04:11:56.640Z,4.73
2018-11-14T04:12:56.633Z,4.77
2018-11-14T04:13:56.623Z,4.80
2018-11-14T04:14:56.616Z,4.69
2018-11-14T04:15:56.605Z,4.65
2018-11-14T04:16:56.602Z,4.55
2018-11-14T04:17:56.592Z,4.57
2018-11-14T04:18:56.585Z,4.54
2018-11-14T04:19:56.602Z,4.52
2018-11-14T04:20:56.559Z,4.50
2018-11-14T04:21:56.562Z,4.42
2018-11-14T04:22:56.564Z,4.52
2018-11-14T04:23:56.554Z,4.55
2018-11-14T04:24:56.536Z,4.58
2018-11-14T04:25:56.520Z,4.61
2018-11-14T04:26:56.508Z,4.64
2018-11-14T04:27:56.509Z,4.72
2018-11-14T04:28:56.498Z,4.61
2018-11-14T04:29:56.493Z,4.61
2018-11-14T04:30:56.483Z,4.57
2018-11-14T04:31:56.474Z,4.57
2018-11-14T04:32:56.459Z,4.46
2018-11-14T04:33:56.461Z,4.52
2018-11-14T04:34:56.440Z,4.52
2018-11-14T04:35:56.453Z,4.57
2018-11-14T04:36:56.422Z,4.51
2018-11-14T04:37:56.417Z,4.58
2018-11-14T04:38:56.411Z,4.64
2018-11-14T04:39:56.398Z,4.65
2018-11-14T04:40:56.415Z,4.73
2018-11-14T04:41:56.394Z,4.84
2018-11-14T04:42:56.399Z,4.67
2018-11-14T04:43:56.363Z,4.72
2018-11-14T04:44:56.370Z,4.70
2018-11-14T04:45:56.349Z,4.75
2018-11-14T04:46:56.348Z,4.73
2018-11-14T04:47:56.343Z,4.69
2018-11-14T04:48:56.323Z,4.76
2018-11-14T04:49:56.319Z,4.73
2018-11-14T04:50:56.307Z,4.69
2018-11-14T04:51:56.296Z,4.65
2018-11-14T04:52:56.291Z,4.72
2018-11-14T04:53:56.280Z,4.72
2018-11-14T04:54:56.267Z,4.70
2018-11-14T04:55:56.264Z,4.83
2018-11-14T04:56:56.263Z,4.91
2018-11-14T04:57:56.250Z,4.84
2018-11-14T04:58:56.231Z,4.83
2018-11-14T04:59:56.226Z,4.86
2018-11-14T05:00:56.223Z,4.88
2018-11-14T05:01:56.214Z,4.94
2018-11-14T05:02:56.210Z,4.76
2018-11-14T05:03:56.193Z,4.62
2018-11-14T05:04:56.185Z,4.51
2018-11-14T05:05:56.177Z,4.47
2018-11-14T05:06:56.168Z,4.52
2018-11-14T05:07:56.152Z,4.42
2018-11-14T05:08:56.147Z,4.46
2018-11-14T05:09:56.140Z,4.33
2018-11-14T05:10:56.134Z,4.39
2018-11-14T05:11:56.117Z,4.46
2018-11-14T05:12:56.144Z,4.47
2018-11-14T05:13:56.101Z,4.57
2018-11-14T05:14:56.091Z,4.73
2018-11-14T05:15:56.094Z,4.67
2018-11-14T05:16:56.077Z,4.69
2018-11-14T05:17:56.087Z,4.73
2018-11-14T05:18:56.065Z,4.67
2018-11-14T05:19:56.048Z,4.52
2018-11-14T05:20:56.041Z,4.55
2018-11-14T05:21:56.027Z,4.67
2018-11-14T05:22:56.023Z,4.59
2018-11-14T05:23:56.014Z,4.54
2018-11-14T05:24:56.008Z,4.61
2018-11-14T05:25:55.996Z,4.52
2018-11-14T05:26:55.992Z,4.55
2018-11-14T05:27:55.980Z,4.47
2018-11-14T05:28:55.974Z,4.46
2018-11-14T05:29:55.967Z,4.57
2018-11-14T05:30:55.955Z,4.55
2018-11-14T05:31:56.011Z,4.70
2018-11-14T05:32:55.941Z,4.69
2018-11-14T05:33:55.925Z,4.76
2018-11-14T05:34:55.918Z,4.65
2018-11-14T05:35:55.903Z,4.54
2018-11-14T05:36:55.913Z,4.72
2018-11-14T05:37:55.888Z,4.72
2018-11-14T05:38:55.882Z,4.61
2018-11-14T05:39:55.925Z,4.77
2018-11-14T05:40:55.870Z,4.86
2018-11-14T05:41:55.859Z,4.83
2018-11-14T05:42:55.848Z,4.75
2018-11-14T05:43:55.831Z,4.69
2018-11-14T05:44:55.827Z,4.67
2018-11-14T05:45:55.815Z,4.69
2018-11-14T05:46:55.807Z,4.73
2018-11-14T05:47:55.805Z,4.73
2018-11-14T05:48:55.795Z,4.57
2018-11-14T05:49:55.781Z,4.44
2018-11-14T05:50:55.772Z,4.54
2018-11-14T05:51:55.791Z,4.59
2018-11-14T05:52:55.762Z,4.54
2018-11-14T05:53:55.748Z,4.51
2018-11-14T05:54:55.800Z,4.54
2018-11-14T05:55:55.723Z,4.65
2018-11-14T05:56:55.737Z,4.57
2018-11-14T05:57:55.733Z,4.67
2018-11-14T05:58:55.706Z,4.57
2018-11-14T05:59:55.689Z,4.67
2018-11-14T06:00:55.676Z,4.67
2018-11-14T06:01:55.665Z,4.75
2018-11-14T06:02:55.681Z,4.67
2018-11-14T06:03:55.644Z,4.69
2018-11-14T06:04:55.641Z,4.76
2018-11-14T06:05:55.639Z,4.83
2018-11-14T06:06:55.634Z,4.95
2018-11-14T06:07:55.649Z,4.95
2018-11-14T06:08:55.606Z,4.96
2018-11-14T06:09:55.623Z,4.99
2018-11-14T06:10:55.588Z,4.95
2018-11-14T06:11:55.589Z,4.92
2018-11-14T06:12:55.563Z,5.01
2018-11-14T06:13:55.559Z,4.96
2018-11-14T06:14:55.545Z,4.96
2018-11-14T06:15:55.544Z,4.92
2018-11-14T06:16:55.530Z,4.98
2018-11-14T06:17:55.571Z,4.96
2018-11-14T06:18:55.509Z,4.91
2018-11-14T06:19:55.506Z,4.98
2018-11-14T06:20:55.497Z,4.88
2018-11-14T06:21:55.506Z,4.84
2018-11-14T06:22:55.488Z,4.84
2018-11-14T06:23:55.466Z,4.70
2018-11-14T06:24:55.459Z,4.62
2018-11-14T06:25:55.455Z,4.79
2018-11-14T06:26:55.443Z,4.75
2018-11-14T06:27:55.433Z,4.79
2018-11-14T06:28:55.435Z,4.75
2018-11-14T06:29:55.468Z,4.86
2018-11-14T06:30:55.402Z,4.70
2018-11-14T06:31:55.394Z,4.79
2018-11-14T06:32:55.378Z,4.69
2018-11-14T06:33:55.369Z,4.77
2018-11-14T06:34:55.361Z,4.73
2018-11-14T06:35:55.350Z,4.73
2018-11-14T06:36:55.344Z,4.73
2018-11-14T06:37:55.338Z,4.86
2018-11-14T06:38:55.321Z,4.92
2018-11-14T06:39:55.339Z,4.80
2018-11-14T06:40:55.309Z,4.84
2018-11-14T06:41:55.300Z,4.79
2018-11-14T06:42:55.287Z,4.94
2018-11-14T06:43:55.273Z,4.94
2018-11-14T06:44:55.264Z,4.84
2018-11-14T06:45:55.257Z,4.96
2018-11-14T06:46:55.264Z,4.95
2018-11-14T06:47:55.234Z,4.91
2018-11-14T06:48:55.223Z,4.94
2018-11-14T06:49:55.276Z,5.04
2018-11-14T06:50:55.217Z,4.92
2018-11-14T06:51:55.222Z,4.98
2018-11-14T06:52:55.196Z,4.95
2018-11-14T06:53:55.180Z,4.92
2018-11-14T06:54:55.172Z,4.89
2018-11-14T06:55:55.162Z,4.92
2018-11-14T06:56:55.148Z,4.92
2018-11-14T06:57:55.138Z,5.10
2018-11-14T06:58:55.150Z,5.05
2018-11-14T06:59:55.134Z,5.10
2018-11-14T07:00:55.108Z,5.07
2018-11-14T07:01:55.099Z,5.09
2018-11-14T07:03:04.634Z,4.92
2018-11-14T07:04:48.519Z,5.09
2018-11-14T07:05:48.584Z,4.91
2018-11-14T07:06:48.439Z,5.07
2018-11-14T07:07:48.433Z,4.99
2018-11-14T07:08:57.058Z,5.02
2018-11-14T07:10:41.831Z,5.05
2018-11-14T07:11:41.802Z,5.22
2018-11-14T07:12:41.799Z,5.16
2018-11-14T07:13:41.782Z,5.12
2018-11-14T07:14:41.771Z,5.17
2018-11-14T07:15:41.762Z,5.14
2018-11-14T07:16:41.758Z,5.12
2018-11-14T07:17:41.745Z,5.34
2018-11-14T07:18:41.740Z,5.27
2018-11-14T07:19:41.726Z,5.30
2018-11-14T07:20:41.716Z,5.23
2018-11-14T07:21:41.719Z,5.28
2018-11-14T07:22:41.698Z,5.27
2018-11-14T07:23:41.720Z,5.14
2018-11-14T07:24:41.803Z,5.16
2018-11-14T07:25:41.666Z,5.19
2018-11-14T07:26:41.655Z,5.22
2018-11-14T07:27:41.653Z,5.19
2018-11-14T07:28:41.652Z,5.27
2018-11-14T07:29:41.636Z,5.27
2018-11-14T07:30:41.628Z,5.25
2018-11-14T07:31:41.610Z,5.30
2018-11-14T07:32:41.618Z,5.23
2018-11-14T07:33:41.596Z,5.30
2018-11-14T07:34:41.597Z,5.30
2018-11-14T07:35:41.579Z,5.27
2018-11-14T07:36:41.570Z,5.43
2018-11-14T07:37:41.612Z,5.45
2018-11-14T07:38:41.551Z,5.45
2018-11-14T07:39:41.545Z,5.55
2018-11-14T07:40:41.547Z,5.64
2018-11-14T07:41:41.517Z,5.68
2018-11-14T07:42:41.512Z,5.73
2018-11-14T07:43:41.521Z,5.71
2018-11-14T07:44:41.498Z,5.74
2018-11-14T07:45:41.481Z,5.70
2018-11-14T07:46:41.476Z,5.82
2018-11-14T07:47:41.478Z,5.88
2018-11-14T07:48:41.454Z,5.96
2018-11-14T07:49:41.450Z,5.96
2018-11-14T07:50:41.439Z,5.92
2018-11-14T07:51:41.429Z,5.91
2018-11-14T07:52:41.449Z,5.91
2018-11-14T07:53:41.429Z,5.89
2018-11-14T07:54:41.477Z,5.91
2018-11-14T07:55:41.393Z,5.89
2018-11-14T07:56:41.382Z,5.89
2018-11-14T07:57:41.380Z,5.89
2018-11-14T07:58:41.375Z,5.93
2018-11-14T07:59:41.359Z,6.03
2018-11-14T08:00:41.344Z,6.04
2018-11-14T08:01:41.336Z,6.13
2018-11-14T08:02:41.335Z,6.21
2018-11-14T08:03:41.336Z,6.22
2018-11-14T08:04:41.311Z,6.16
2018-11-14T08:05:41.331Z,6.36
2018-11-14T08:06:41.300Z,6.33
2018-11-14T08:07:41.339Z,6.50
2018-11-14T08:08:41.283Z,6.43
2018-11-14T08:09:41.262Z,6.40
2018-11-14T08:10:41.275Z,6.48
2018-11-14T08:11:41.250Z,6.50
2018-11-14T08:12:41.238Z,6.62
2018-11-14T08:13:49.921Z,6.76
2018-11-14T08:15:34.631Z,6.76
2018-11-14T08:16:34.631Z,6.69
2018-11-14T08:17:34.596Z,6.79
2018-11-14T08:18:34.650Z,6.91
2018-11-14T08:19:34.579Z,6.79
2018-11-14T08:20:34.569Z,6.94
2018-11-14T08:21:34.559Z,7.04
2018-11-14T08:22:34.557Z,6.95
2018-11-14T08:23:34.549Z,6.94
2018-11-14T08:24:34.541Z,6.95
2018-11-14T08:25:34.517Z,6.98
2018-11-14T08:26:34.523Z,6.97
2018-11-14T08:27:34.506Z,7.01
2018-11-14T08:28:34.496Z,7.07
2018-11-14T08:29:34.495Z,7.09
2018-11-14T08:30:34.500Z,7.17
2018-11-14T08:31:34.475Z,7.20
2018-11-14T08:32:34.465Z,7.26
2018-11-14T08:33:34.453Z,7.31
2018-11-14T08:34:34.448Z,7.44
2018-11-14T08:35:34.436Z,7.37
2018-11-14T08:36:34.431Z,7.47
2018-11-14T08:37:34.416Z,7.47
2018-11-14T08:38:34.431Z,7.52
2018-11-14T08:39:34.409Z,7.58
2018-11-14T08:40:34.393Z,7.50
2018-11-14T08:41:34.392Z,7.47
2018-11-14T08:42:34.378Z,7.63
2018-11-14T08:43:34.371Z,7.60
2018-11-14T08:44:34.368Z,7.60
2018-11-14T08:45:34.360Z,7.69
2018-11-14T08:46:34.362Z,7.67
2018-11-14T08:47:34.339Z,7.75
2018-11-14T08:48:34.347Z,7.85
2018-11-14T08:49:34.326Z,7.78
2018-11-14T08:50:34.307Z,7.78
2018-11-14T08:51:34.314Z,7.84
2018-11-14T08:52:34.304Z,7.89
2018-11-14T08:53:34.286Z,7.96
2018-11-14T08:54:34.278Z,8.11
2018-11-14T08:55:34.269Z,8.14
2018-11-14T08:56:34.266Z,8.21
2018-11-14T08:57:34.254Z,8.12
2018-11-14T08:58:34.246Z,8.12
2018-11-14T08:59:34.236Z,8.22
2018-11-14T09:00:34.232Z,8.21
2018-11-14T09:01:34.221Z,8.20
2018-11-14T09:02:34.220Z,8.37
2018-11-14T09:03:34.208Z,8.40
2018-11-14T09:04:34.197Z,8.40
2018-11-14T09:05:34.195Z,8.51
2018-11-14T09:06:34.184Z,8.60
2018-11-14T09:07:34.183Z,8.69
2018-11-14T09:08:34.178Z,8.65
2018-11-14T09:09:34.165Z,8.69
2018-11-14T09:10:34.169Z,8.76
2018-11-14T09:11:34.135Z,8.76
2018-11-14T09:12:34.257Z,8.78
2018-11-14T09:13:34.130Z,8.83
2018-11-14T09:14:34.185Z,8.88
2018-11-14T09:15:34.115Z,8.84
2018-11-14T09:16:34.101Z,8.86
2018-11-14T09:17:34.106Z,8.97
2018-11-14T09:18:34.103Z,9.25
2018-11-14T09:19:34.083Z,9.06
2018-11-14T09:20:34.087Z,9.24
2018-11-14T09:21:34.064Z,9.24
2018-11-14T09:22:34.061Z,9.21
2018-11-14T09:23:34.047Z,9.40
2018-11-14T09:24:34.045Z,9.28
2018-11-14T09:25:34.035Z,9.38
2018-11-14T09:26:34.028Z,9.39
2018-11-14T09:27:34.030Z,9.27
2018-11-14T09:28:34.034Z,9.38
2018-11-14T09:29:34.010Z,9.35
2018-11-14T09:30:34.005Z,9.42
2018-11-14T09:31:33.992Z,9.48
2018-11-14T09:32:33.987Z,9.57
2018-11-14T09:33:33.986Z,9.67
2018-11-14T09:34:33.983Z,9.67
2018-11-14T09:35:33.980Z,9.64
2018-11-14T09:36:33.958Z,9.76
2018-11-14T09:37:33.952Z,9.81
2018-11-14T09:38:33.947Z,9.66
2018-11-14T09:39:33.938Z,9.68
2018-11-14T09:40:33.928Z,9.66
2018-11-14T09:41:33.984Z,9.85
2018-11-14T09:42:33.963Z,9.66
2018-11-14T09:43:33.919Z,9.78
2018-11-14T09:44:33.949Z,9.63
2018-11-14T09:45:33.897Z,9.73
2018-11-14T09:46:33.887Z,9.60
2018-11-14T09:47:33.882Z,9.66
2018-11-14T09:48:33.907Z,9.83
2018-11-14T09:49:33.868Z,9.89
2018-11-14T09:50:33.856Z,9.81
2018-11-14T09:51:33.852Z,9.93
2018-11-14T09:52:33.852Z,9.97
2018-11-14T09:53:33.849Z,10.06
2018-11-14T09:54:33.837Z,10.06
2018-11-14T09:55:33.851Z,10.18
2018-11-14T09:56:33.873Z,10.19
2018-11-14T09:57:33.822Z,10.15
2018-11-14T09:58:33.808Z,10.22
2018-11-14T09:59:33.805Z,9.99
2018-11-14T10:00:33.825Z,10.01
2018-11-14T10:01:33.796Z,10.01
2018-11-14T10:02:33.783Z,10.06
2018-11-14T10:03:33.831Z,10.30
2018-11-14T10:04:33.766Z,10.28
2018-11-14T10:05:33.776Z,10.42
2018-11-14T10:06:33.755Z,10.43
2018-11-14T10:07:33.755Z,10.51
2018-11-14T10:08:33.742Z,10.40
2018-11-14T10:09:33.736Z,10.55
2018-11-14T10:10:33.751Z,10.51
2018-11-14T10:11:33.732Z,10.51
2018-11-14T10:12:33.742Z,10.52
2018-11-14T10:13:33.717Z,10.70
2018-11-14T10:14:33.715Z,10.71
2018-11-14T10:15:33.760Z,10.63
2018-11-14T10:16:33.697Z,10.60
2018-11-14T10:17:33.690Z,10.52
2018-11-14T10:18:33.757Z,10.42
2018-11-14T10:19:33.675Z,10.39
2018-11-14T10:20:33.672Z,10.47
2018-11-14T10:21:33.663Z,10.58
2018-11-14T10:22:33.691Z,10.63
2018-11-14T10:23:33.653Z,10.63
2018-11-14T10:24:33.651Z,10.60
2018-11-14T10:25:33.637Z,10.56
2018-11-14T10:26:33.639Z,10.66
2018-11-14T10:27:33.629Z,10.51
2018-11-14T10:28:33.623Z,10.34
2018-11-14T10:29:33.617Z,10.28
2018-11-14T10:30:33.605Z,10.30
2018-11-14T10:31:33.680Z,10.39
2018-11-14T10:32:33.606Z,10.32
2018-11-14T10:33:33.588Z,10.32
2018-11-14T10:34:33.585Z,10.59
2018-11-14T10:35:33.579Z,10.84
2018-11-14T10:36:33.572Z,10.83
2018-11-14T10:37:33.559Z,10.88
2018-11-14T10:38:33.554Z,10.84
2018-11-14T10:39:33.556Z,10.66
2018-11-14T10:40:33.546Z,10.60
2018-11-14T10:41:33.540Z,10.51
2018-11-14T10:42:33.544Z,10.60
2018-11-14T10:43:33.535Z,10.71
2018-11-14T10:44:33.523Z,10.86
2018-11-14T10:45:33.517Z,11.06
2018-11-14T10:46:33.513Z,10.98
2018-11-14T10:47:33.505Z,11.01
2018-11-14T10:48:33.500Z,10.94
2018-11-14T10:49:33.508Z,10.89
2018-11-14T10:50:33.510Z,10.66
2018-11-14T10:51:33.491Z,10.59
2018-11-14T10:52:33.480Z,10.77
2018-11-14T10:53:33.473Z,11.09
2018-11-14T10:54:33.468Z,11.07
2018-11-14T10:55:33.462Z,11.17
2018-11-14T10:56:33.461Z,11.14
2018-11-14T10:57:33.534Z,11.20
2018-11-14T10:58:33.516Z,11.02
2018-11-14T10:59:33.449Z,10.96
2018-11-14T11:00:33.437Z,10.92
2018-11-14T11:01:33.434Z,11.14
2018-11-14T11:02:33.421Z,11.25
2018-11-14T11:03:33.427Z,11.47
2018-11-14T11:04:33.409Z,11.44
2018-11-14T11:05:33.403Z,11.52
2018-11-14T11:06:33.416Z,11.52
2018-11-14T11:07:33.392Z,11.35
2018-11-14T11:08:33.451Z,11.11
2018-11-14T11:09:33.383Z,11.17
2018-11-14T11:10:33.378Z,11.24
2018-11-14T11:11:33.367Z,11.29
2018-11-14T11:12:33.366Z,11.44
2018-11-14T11:13:33.372Z,11.41
2018-11-14T11:14:33.395Z,11.27
2018-11-14T11:15:33.355Z,11.41
2018-11-14T11:16:33.344Z,11.46
2018-11-14T11:17:33.336Z,11.46
2018-11-14T11:18:33.337Z,11.24
2018-11-14T11:19:33.346Z,11.32
2018-11-14T11:20:33.322Z,11.17
2018-11-14T11:21:33.319Z,11.07
2018-11-14T11:22:33.307Z,11.24
2018-11-14T11:23:33.419Z,11.21
2018-11-14T11:24:33.297Z,11.17
2018-11-14T11:25:33.314Z,11.27
2018-11-14T11:26:33.290Z,11.49
2018-11-14T11:27:33.302Z,11.59
2018-11-14T11:28:33.289Z,11.50
2018-11-14T11:29:33.279Z,11.46
2018-11-14T11:30:33.280Z,11.43
2018-11-14T11:31:33.293Z,11.46
2018-11-14T11:32:33.260Z,11.44
2018-11-14T11:33:33.255Z,11.38
2018-11-14T11:34:33.258Z,11.35
2018-11-14T11:35:33.248Z,11.29
2018-11-14T11:36:33.236Z,11.27
2018-11-14T11:37:33.229Z,11.29
2018-11-14T11:38:33.241Z,11.32
2018-11-14T11:39:33.242Z,11.35
2018-11-14T11:40:33.215Z,11.27
2018-11-14T11:41:33.208Z,11.24
2018-11-14T11:42:33.218Z,11.32
2018-11-14T11:43:33.197Z,11.35
2018-11-14T11:44:33.247Z,11.27
2018-11-14T11:45:33.190Z,11.32
2018-11-14T11:46:33.186Z,11.36
2018-11-14T11:47:33.173Z,11.34
2018-11-14T11:48:33.210Z,11.24
2018-11-14T11:49:33.177Z,11.03
2018-11-14T11:50:33.168Z,11.16
2018-11-14T11:51:33.162Z,11.09
2018-11-14T11:52:33.157Z,11.07
2018-11-14T11:53:33.145Z,11.06
2018-11-14T11:54:33.136Z,11.03
2018-11-14T11:55:33.140Z,11.03
2018-11-14T11:56:33.147Z,11.02
2018-11-14T11:57:33.184Z,10.99
2018-11-14T11:58:33.125Z,10.98
2018-11-14T11:59:33.141Z,11.01
2018-11-14T12:00:33.249Z,11.01
2018-11-14T12:01:33.098Z,11.03
2018-11-14T12:02:33.098Z,11.03
2018-11-14T12:03:33.095Z,10.98
2018-11-14T12:04:33.092Z,10.98
2018-11-14T12:05:33.206Z,10.96
2018-11-14T12:06:33.213Z,11.01
2018-11-14T12:07:33.067Z,10.83
2018-11-14T12:08:33.081Z,10.84
2018-11-14T12:09:33.060Z,10.83
2018-11-14T12:10:33.057Z,10.73
2018-11-14T12:11:33.042Z,10.63
2018-11-14T12:12:33.045Z,10.59
2018-11-14T12:13:33.107Z,10.55
2018-11-14T12:14:33.039Z,10.59
2018-11-14T12:15:33.029Z,10.60
2018-11-14T12:16:33.027Z,10.59
2018-11-14T12:17:33.081Z,10.60
2018-11-14T12:18:33.012Z,10.58
2018-11-14T12:19:33.014Z,10.55
2018-11-14T12:20:33.001Z,10.53
2018-11-14T12:21:33.003Z,10.56
2018-11-14T12:22:32.984Z,10.62
2018-11-14T12:23:33.030Z,10.62
2018-11-14T12:24:32.985Z,10.62
2018-11-14T12:25:32.970Z,10.59
2018-11-14T12:26:32.970Z,10.53
2018-11-14T12:27:32.993Z,10.52
2018-11-14T12:28:32.962Z,10.53
2018-11-14T12:29:32.943Z,10.55
2018-11-14T12:30:32.993Z,10.46
2018-11-14T12:31:32.950Z,10.47
2018-11-14T12:32:32.942Z,10.52
2018-11-14T12:33:32.928Z,10.51
2018-11-14T12:34:32.958Z,10.42
2018-11-14T12:35:32.980Z,10.36
2018-11-14T12:36:32.916Z,10.58
2018-11-14T12:37:32.917Z,10.55
2018-11-14T12:38:32.911Z,10.51
2018-11-14T12:39:32.896Z,10.60
2018-11-14T12:40:32.890Z,10.59
2018-11-14T12:41:32.905Z,10.70
2018-11-14T12:42:32.871Z,10.60
2018-11-14T12:43:32.873Z,10.59
2018-11-14T12:44:32.895Z,10.65
2018-11-14T12:45:32.858Z,10.68
2018-11-14T12:46:32.857Z,10.70
2018-11-14T12:47:32.852Z,10.65
2018-11-14T12:48:32.840Z,10.58
2018-11-14T12:49:32.852Z,10.56
2018-11-14T12:50:32.859Z,10.56
2018-11-14T12:51:32.852Z,10.58
2018-11-14T12:52:32.906Z,10.53
2018-11-14T12:53:32.839Z,10.51
2018-11-14T12:54:32.822Z,10.51
2018-11-14T12:55:32.823Z,10.68
2018-11-14T12:56:32.796Z,10.59
2018-11-14T12:57:32.807Z,10.62
2018-11-14T12:58:32.790Z,10.73
2018-11-14T12:59:32.845Z,10.56
2018-11-14T13:00:32.781Z,10.53
2018-11-14T13:01:32.779Z,10.52
2018-11-14T13:02:32.776Z,10.55
2018-11-14T13:03:32.760Z,10.52
2018-11-14T13:04:32.755Z,10.51
2018-11-14T13:05:32.780Z,10.39
2018-11-14T13:06:32.756Z,10.44
2018-11-14T13:07:32.744Z,10.56
2018-11-14T13:08:32.737Z,10.51
2018-11-14T13:09:32.726Z,10.65
2018-11-14T13:10:32.734Z,10.63
2018-11-14T13:11:32.723Z,10.66
2018-11-14T13:12:32.709Z,10.68
2018-11-14T13:13:32.701Z,10.68
2018-11-14T13:14:32.708Z,10.74
2018-11-14T13:15:32.706Z,10.77
2018-11-14T13:16:32.692Z,10.73
2018-11-14T13:17:32.686Z,10.71
2018-11-14T13:18:32.685Z,10.70
2018-11-14T13:19:32.673Z,10.70
2018-11-14T13:20:32.673Z,10.63
2018-11-14T13:21:32.674Z,10.71
2018-11-14T13:22:32.657Z,10.65
2018-11-14T13:23:32.656Z,10.78
2018-11-14T13:24:32.665Z,10.73
2018-11-14T13:25:32.641Z,10.70
2018-11-14T13:26:32.636Z,10.65
2018-11-14T13:27:32.634Z,10.66
2018-11-14T13:28:32.634Z,10.65
2018-11-14T13:29:32.617Z,10.47
2018-11-14T13:30:32.612Z,10.60
2018-11-14T13:31:32.616Z,10.55
2018-11-14T13:32:32.600Z,10.55
2018-11-14T13:33:32.618Z,10.55
2018-11-14T13:34:32.600Z,10.42
2018-11-14T13:35:32.588Z,10.51
2018-11-14T13:36:32.576Z,10.37
2018-11-14T13:37:32.596Z,10.42
2018-11-14T13:38:32.578Z,10.39
2018-11-14T13:39:32.564Z,10.43
2018-11-14T13:40:32.585Z,10.39
2018-11-14T13:41:32.589Z,10.40
2018-11-14T13:42:32.543Z,10.36
2018-11-14T13:43:32.548Z,10.40
2018-11-14T13:44:32.540Z,10.39
2018-11-14T13:45:32.576Z,10.44
2018-11-14T13:46:32.519Z,10.40
2018-11-14T13:47:32.599Z,10.33
2018-11-14T13:48:32.517Z,10.39
2018-11-14T13:49:32.879Z,10.28
2018-11-14T13:50:32.702Z,10.43
2018-11-14T13:51:32.638Z,10.37
2018-11-14T13:52:32.496Z,10.36
2018-11-14T13:53:32.588Z,10.32
2018-11-14T13:54:32.477Z,10.25
2018-11-14T13:55:32.475Z,10.17
2018-11-14T13:56:32.486Z,10.24
2018-11-14T13:57:32.507Z,10.14
2018-11-14T13:58:32.465Z,10.18
2018-11-14T13:59:32.571Z,10.22
2018-11-14T14:00:32.446Z,10.30
2018-11-14T14:01:32.584Z,10.34
2018-11-14T14:02:32.432Z,10.18
2018-11-14T14:03:32.430Z,10.19
2018-11-14T14:04:32.437Z,10.06
2018-11-14T14:05:32.426Z,10.03
2018-11-14T14:06:32.413Z,10.04
2018-11-14T14:07:32.457Z,10.09
2018-11-14T14:08:32.406Z,10.17
2018-11-14T14:09:32.532Z,10.10
2018-11-14T14:10:32.414Z,10.06
2018-11-14T14:11:32.398Z,10.19
2018-11-14T14:12:32.387Z,10.15
2018-11-14T14:13:32.393Z,10.06
2018-11-14T14:14:32.366Z,10.19
2018-11-14T14:15:32.369Z,10.14
2018-11-14T14:16:32.392Z,10.19
2018-11-14T14:17:32.357Z,10.17
2018-11-14T14:18:32.390Z,10.22
2018-11-14T14:19:32.347Z,10.17
2018-11-14T14:20:32.344Z,10.07
2018-11-14T14:21:32.357Z,10.15
2018-11-14T14:22:32.321Z,10.06
2018-11-14T14:23:32.322Z,10.06
2018-11-14T14:24:32.333Z,9.99
2018-11-14T14:25:32.315Z,9.86
2018-11-14T14:26:32.319Z,9.94
2018-11-14T14:27:32.304Z,9.97
2018-11-14T14:28:32.298Z,9.96
2018-11-14T14:29:32.289Z,9.81
2018-11-14T14:30:32.288Z,9.81
2018-11-14T14:31:32.286Z,9.71
2018-11-14T14:32:32.273Z,9.81
2018-11-14T14:33:32.262Z,9.82
2018-11-14T14:34:32.269Z,9.73
2018-11-14T14:35:32.260Z,9.64
2018-11-14T14:36:32.253Z,9.70
2018-11-14T14:37:32.254Z,9.67
2018-11-14T14:38:32.239Z,9.68
2018-11-14T14:39:32.230Z,9.70
2018-11-14T14:40:32.241Z,9.64
2018-11-14T14:41:32.220Z,9.73
2018-11-14T14:42:32.223Z,9.64
2018-11-14T14:43:32.210Z,9.71
2018-11-14T14:44:32.207Z,9.60
2018-11-14T14:45:32.206Z,9.71
2018-11-14T14:46:32.205Z,9.64
2018-11-14T14:47:32.203Z,9.66
2018-11-14T14:48:32.200Z,9.64
2018-11-14T14:49:32.181Z,9.70
2018-11-14T14:50:32.169Z,9.58
2018-11-14T14:51:32.162Z,9.60
2018-11-14T14:52:32.168Z,9.63
2018-11-14T14:53:32.154Z,9.61
2018-11-14T14:54:32.150Z,9.58
2018-11-14T14:55:32.141Z,9.63
2018-11-14T14:56:32.235Z,9.60
2018-11-14T14:57:32.138Z,9.56
2018-11-14T14:58:32.122Z,9.49
2018-11-14T14:59:32.116Z,9.53
2018-11-14T15:00:32.110Z,9.50
2018-11-14T15:01:32.109Z,9.40
2018-11-14T15:02:32.110Z,9.39
2018-11-14T15:03:32.167Z,9.45
2018-11-14T15:04:32.115Z,9.38
2018-11-14T15:05:32.091Z,9.30
2018-11-14T15:06:32.081Z,9.32
2018-11-14T15:07:32.083Z,9.24
2018-11-14T15:08:32.070Z,9.18
2018-11-14T15:09:32.117Z,9.20
2018-11-14T15:10:32.057Z,9.16
2018-11-14T15:11:32.062Z,9.06
2018-11-14T15:12:32.042Z,9.20
2018-11-14T15:13:32.050Z,9.23
2018-11-14T15:14:32.032Z,9.12
2018-11-14T15:15:32.051Z,9.10
2018-11-14T15:16:32.015Z,9.09
2018-11-14T15:17:32.021Z,9.18
2018-11-14T15:18:32.021Z,9.10
2018-11-14T15:19:32.018Z,9.12
2018-11-14T15:20:32.036Z,9.06
2018-11-14T15:21:32.014Z,9.10
2018-11-14T15:22:32.044Z,9.25
2018-11-14T15:23:31.977Z,9.24
2018-11-14T15:24:31.973Z,9.15
2018-11-14T15:25:31.964Z,9.13
2018-11-14T15:26:31.959Z,9.24
2018-11-14T15:27:31.954Z,9.20
2018-11-14T15:28:31.970Z,9.18
2018-11-14T15:29:31.939Z,9.21
2018-11-14T15:30:31.939Z,9.21
2018-11-14T15:31:31.935Z,9.20
2018-11-14T15:32:31.921Z,9.24
2018-11-14T15:33:52.927Z,9.09
2018-11-14T15:34:31.914Z,9.06
2018-11-14T15:35:31.925Z,9.06
2018-11-14T15:36:31.901Z,9.21
2018-11-14T15:37:31.901Z,9.25
2018-11-14T15:38:31.889Z,9.28
2018-11-14T15:39:31.880Z,9.23
2018-11-14T15:40:31.877Z,9.30
2018-11-14T15:41:31.867Z,9.15
2018-11-14T15:42:31.910Z,9.30
2018-11-14T15:43:31.867Z,9.35
2018-11-14T15:44:31.881Z,9.35
2018-11-14T15:45:31.872Z,9.30
2018-11-14T15:46:31.845Z,9.39
2018-11-14T15:47:31.832Z,9.39
2018-11-14T15:48:31.838Z,9.30
2018-11-14T15:49:31.823Z,9.42
2018-11-14T15:50:31.825Z,9.32
2018-11-14T15:51:31.876Z,9.39
2018-11-14T15:52:31.827Z,9.31
2018-11-14T15:53:31.802Z,9.42
2018-11-14T15:54:31.798Z,9.35
2018-11-14T15:55:31.797Z,9.42
2018-11-14T15:56:31.781Z,9.43
2018-11-14T15:57:31.779Z,9.45
2018-11-14T15:58:31.778Z,9.42
2018-11-14T15:59:31.781Z,9.43
2018-11-14T16:00:31.758Z,9.39
2018-11-14T16:01:31.749Z,9.39
2018-11-14T16:02:31.746Z,9.43
2018-11-14T16:03:31.740Z,9.34
2018-11-14T16:04:31.743Z,9.35
2018-11-14T16:05:31.785Z,9.35
2018-11-14T16:06:31.725Z,9.35
2018-11-14T16:07:31.725Z,9.35
2018-11-14T16:08:31.738Z,9.50
2018-11-14T16:09:31.709Z,9.45
2018-11-14T16:10:31.710Z,9.39
2018-11-14T16:11:31.695Z,9.40
2018-11-14T16:12:31.752Z,9.40
2018-11-14T16:13:31.680Z,9.35
2018-11-14T16:14:31.683Z,9.28
2018-11-14T16:15:31.671Z,9.30
2018-11-14T16:16:31.681Z,9.39
2018-11-14T16:17:31.662Z,9.39
2018-11-14T16:18:31.662Z,9.39
2018-11-14T16:19:31.682Z,9.45
2018-11-14T16:20:31.645Z,9.46
2018-11-14T16:21:31.656Z,9.49
2018-11-14T16:22:31.626Z,9.52
2018-11-14T16:23:31.625Z,9.48
2018-11-14T16:24:31.664Z,9.50
2018-11-14T16:25:31.640Z,9.46
2018-11-14T16:26:31.606Z,9.46
2018-11-14T16:27:31.607Z,9.45
2018-11-14T16:28:31.598Z,9.56